createdAt,value
2023-01-23T00:01:20.708Z,12.70
2023-01-23T00:03:47.802Z,12.80
2023-01-23T00:06:16.663Z,11.70
2023-01-23T00:08:45.058Z,13.05
2023-01-23T00:11:15.336Z,12.13
2023-01-23T00:13:42.270Z,12.35
2023-01-23T00:16:16.273Z,12.35
2023-01-23T00:18:43.408Z,12.68
2023-01-23T00:21:12.880Z,11.57
2023-01-23T00:23:44.045Z,13.25
2023-01-23T00:26:15.747Z,12.38
2023-01-23T00:28:45.738Z,12.85
2023-01-23T00:31:16.254Z,12.43
2023-01-23T00:33:44.540Z,12.75
2023-01-23T00:36:12.505Z,12.65
2023-01-23T00:38:40.225Z,13.38
2023-01-23T00:41:08.013Z,14.25
2023-01-23T00:43:35.060Z,13.88
2023-01-23T00:46:02.210Z,14.43
2023-01-23T00:48:29.211Z,12.93
2023-01-23T00:50:56.648Z,13.35
2023-01-23T00:53:24.381Z,13.65
2023-01-23T00:55:51.501Z,14.18
2023-01-23T00:58:18.800Z,15.07
2023-01-23T01:00:46.007Z,14.50
2023-01-23T01:03:13.281Z,15.52
2023-01-23T01:05:42.011Z,14.73
2023-01-23T01:08:09.530Z,13.68
2023-01-23T01:10:37.340Z,15.75
2023-01-23T01:13:05.524Z,16.75
2023-01-23T01:15:32.644Z,15.93
2023-01-23T01:17:59.684Z,14.40
2023-01-23T01:20:28.520Z,14.93
2023-01-23T01:22:57.241Z,16.35
2023-01-23T01:25:24.334Z,16.27
2023-01-23T01:27:51.331Z,15.90
2023-01-23T01:30:19.291Z,13.98
2023-01-23T01:32:47.750Z,16.77
2023-01-23T01:35:14.938Z,16.52
2023-01-23T01:37:42.285Z,18.20
2023-01-23T01:40:15.168Z,17.13
2023-01-23T01:42:45.433Z,16.55
2023-01-23T01:45:50.028Z,17.45
2023-01-23T01:48:18.907Z,16.40
2023-01-23T01:50:46.099Z,16.70
2023-01-23T01:53:13.736Z,15.63
2023-01-23T01:55:40.715Z,16.98
2023-01-23T01:58:08.851Z,16.40
2023-01-23T02:00:36.340Z,16.25
2023-01-23T02:03:04.007Z,16.60
2023-01-23T02:05:47.472Z,17.58
2023-01-23T02:08:14.820Z,18.00
2023-01-23T02:10:44.373Z,16.50
2023-01-23T02:13:39.921Z,18.52
2023-01-23T02:16:11.473Z,17.50
2023-01-23T02:18:45.577Z,16.60
2023-01-23T02:21:15.369Z,17.17
2023-01-23T02:24:04.565Z,17.55
2023-01-23T02:26:42.763Z,17.35
2023-01-23T02:29:11.870Z,17.15
2023-01-23T02:31:47.100Z,18.10
2023-01-23T02:34:14.809Z,18.10
2023-01-23T02:36:47.420Z,17.60
2023-01-23T02:39:17.763Z,17.83
2023-01-23T02:41:53.035Z,17.90
2023-01-23T02:44:32.280Z,16.98
2023-01-23T02:47:05.516Z,17.65
2023-01-23T02:49:32.669Z,19.08
2023-01-23T02:52:00.141Z,17.70
2023-01-23T02:54:27.250Z,18.30
2023-01-23T02:56:54.264Z,18.00
2023-01-23T02:59:41.556Z,18.58
2023-01-23T03:02:09.398Z,18.88
2023-01-23T03:04:36.411Z,18.58
2023-01-23T03:07:03.488Z,19.58
2023-01-23T03:09:30.579Z,18.00
2023-01-23T03:11:57.570Z,19.15
2023-01-23T03:14:25.645Z,19.00
2023-01-23T03:16:55.187Z,20.17
2023-01-23T03:19:29.078Z,19.38
2023-01-23T03:21:56.246Z,19.63
2023-01-23T03:24:23.304Z,18.67
2023-01-23T03:26:51.472Z,20.13
2023-01-23T03:29:42.447Z,20.13
2023-01-23T03:32:12.417Z,19.92
2023-01-23T03:34:41.548Z,18.80
2023-01-23T03:37:10.585Z,19.27
2023-01-23T03:39:57.585Z,19.20
2023-01-23T03:42:25.627Z,19.15
2023-01-23T03:44:55.203Z,21.10
2023-01-23T03:47:26.485Z,19.60
2023-01-23T03:49:55.221Z,20.40
2023-01-23T03:52:22.454Z,19.88
2023-01-23T03:54:49.836Z,20.35
2023-01-23T03:57:17.050Z,19.27
2023-01-23T04:00:05.116Z,20.02
2023-01-23T04:02:41.533Z,20.13
2023-01-23T04:05:11.076Z,20.83
2023-01-23T04:07:38.866Z,18.85
2023-01-23T04:10:06.204Z,20.45
2023-01-23T04:12:33.263Z,19.30
2023-01-23T04:15:00.424Z,19.17
2023-01-23T04:17:28.424Z,18.92
2023-01-23T04:19:55.432Z,19.40
2023-01-23T04:22:22.400Z,20.60
2023-01-23T04:24:50.938Z,21.52
2023-01-23T04:27:17.943Z,19.02
2023-01-23T04:29:47.862Z,18.45
2023-01-23T04:32:15.042Z,20.15
2023-01-23T04:34:45.909Z,18.33
2023-01-23T04:37:13.016Z,19.85
2023-01-23T04:39:41.187Z,19.67
2023-01-23T04:42:08.732Z,18.70
2023-01-23T04:44:50.816Z,20.65
2023-01-23T04:47:41.081Z,18.83
2023-01-23T04:50:12.648Z,17.73
2023-01-23T04:52:42.845Z,18.80
2023-01-23T04:55:10.189Z,19.48
2023-01-23T04:57:37.188Z,18.63
2023-01-23T05:00:13.835Z,19.48
2023-01-23T05:02:40.978Z,18.63
2023-01-23T05:05:09.046Z,20.15
2023-01-23T05:07:36.023Z,19.35
2023-01-23T05:10:07.340Z,18.30
2023-01-23T05:12:34.656Z,18.35
2023-01-23T05:15:03.430Z,17.70
2023-01-23T05:17:31.460Z,18.42
2023-01-23T05:19:59.209Z,19.00
2023-01-23T05:22:26.283Z,19.05
2023-01-23T05:24:54.566Z,18.45
2023-01-23T05:27:22.283Z,18.50
2023-01-23T05:29:50.625Z,19.30
2023-01-23T05:32:24.315Z,18.05
2023-01-23T05:35:08.200Z,18.73
2023-01-23T05:37:37.234Z,17.77
2023-01-23T05:40:13.827Z,17.08
2023-01-23T05:43:06.715Z,18.23
2023-01-23T05:45:51.952Z,18.58
2023-01-23T05:48:27.124Z,17.58
2023-01-23T05:50:54.070Z,18.13
2023-01-23T05:53:21.885Z,19.77
2023-01-23T05:55:48.934Z,19.55
2023-01-23T05:58:16.407Z,19.33
2023-01-23T06:01:04.277Z,19.02
2023-01-23T06:03:49.754Z,18.77
2023-01-23T06:06:38.476Z,18.15
2023-01-23T06:09:05.448Z,17.58
2023-01-23T06:11:32.455Z,20.83
2023-01-23T06:13:59.408Z,17.75
2023-01-23T06:16:26.603Z,18.65
2023-01-23T06:18:53.797Z,18.42
2023-01-23T06:21:21.371Z,18.77
2023-01-23T06:23:48.410Z,19.35
2023-01-23T06:26:16.318Z,19.08
2023-01-23T06:28:44.424Z,19.33
2023-01-23T06:31:12.177Z,19.58
2023-01-23T06:34:08.917Z,20.05
2023-01-23T06:36:43.023Z,20.05
2023-01-23T06:39:13.699Z,19.27
2023-01-23T06:41:42.682Z,19.33
2023-01-23T06:44:12.594Z,19.33
2023-01-23T06:46:40.271Z,18.42
2023-01-23T06:49:07.417Z,18.40
2023-01-23T06:51:37.096Z,19.60
2023-01-23T06:54:06.598Z,17.63
2023-01-23T06:56:34.049Z,17.95
2023-01-23T06:59:04.749Z,19.55
2023-01-23T07:01:33.627Z,18.50
2023-01-23T07:04:12.422Z,19.20
2023-01-23T07:06:41.070Z,18.58
2023-01-23T07:09:08.846Z,21.05
2023-01-23T07:11:37.389Z,19.98
2023-01-23T07:14:06.214Z,18.98
2023-01-23T07:16:35.995Z,18.33
2023-01-23T07:19:05.335Z,18.42
2023-01-23T07:21:34.280Z,18.33
2023-01-23T07:24:01.272Z,18.90
2023-01-23T07:26:28.309Z,18.98
2023-01-23T07:28:55.441Z,21.02
2023-01-23T07:31:22.575Z,20.70
2023-01-23T07:33:49.841Z,19.63
2023-01-23T07:36:18.505Z,19.48
2023-01-23T07:38:45.480Z,19.00
2023-01-23T07:41:12.604Z,20.00
2023-01-23T07:43:39.550Z,18.08
2023-01-23T07:46:06.800Z,18.02
2023-01-23T07:48:33.825Z,18.63
2023-01-23T07:51:03.003Z,18.20
2023-01-23T07:53:30.225Z,18.90
2023-01-23T07:55:57.618Z,17.80
2023-01-23T07:58:24.741Z,19.95
2023-01-23T08:00:51.767Z,20.70
2023-01-23T08:03:20.799Z,19.88
2023-01-23T08:05:50.999Z,20.33
2023-01-23T08:08:18.017Z,20.70
2023-01-23T08:10:45.119Z,20.60
2023-01-23T08:13:12.210Z,20.02
2023-01-23T08:15:39.178Z,19.58
2023-01-23T08:18:06.354Z,22.17
2023-01-23T08:20:33.594Z,21.17
2023-01-23T08:23:02.218Z,20.17
2023-01-23T08:25:29.856Z,22.00
2023-01-23T08:27:57.182Z,20.80
2023-01-23T08:30:24.201Z,20.55
2023-01-23T08:32:51.231Z,20.10
2023-01-23T08:35:18.356Z,20.33
2023-01-23T08:37:45.339Z,21.77
2023-01-23T08:40:12.697Z,22.08
2023-01-23T08:42:39.789Z,20.55
2023-01-23T08:45:07.562Z,21.42
2023-01-23T08:47:36.996Z,21.73
2023-01-23T08:50:08.033Z,21.88
2023-01-23T08:52:35.363Z,21.50
2023-01-23T08:55:02.696Z,22.98
2023-01-23T08:57:29.771Z,22.80
2023-01-23T08:59:56.882Z,22.83
2023-01-23T09:02:24.165Z,21.20
2023-01-23T09:04:51.210Z,22.85
2023-01-23T09:07:18.342Z,21.95
2023-01-23T09:09:45.412Z,21.85
2023-01-23T09:12:12.412Z,21.60
2023-01-23T09:14:39.538Z,21.33
2023-01-23T09:17:06.649Z,22.70
2023-01-23T09:19:34.335Z,22.50
2023-01-23T09:22:02.354Z,22.05
2023-01-23T09:24:29.440Z,21.05
2023-01-23T09:26:56.586Z,22.23
2023-01-23T09:29:23.617Z,23.10
2023-01-23T09:31:50.564Z,20.95
2023-01-23T09:34:17.642Z,22.35
2023-01-23T09:36:44.783Z,21.92
2023-01-23T09:39:12.512Z,22.88
2023-01-23T09:41:40.683Z,22.17
2023-01-23T09:44:52.351Z,21.52
2023-01-23T09:47:26.361Z,21.20
2023-01-23T09:50:00.441Z,21.33
2023-01-23T09:52:35.753Z,20.25
2023-01-23T09:55:15.316Z,22.30
2023-01-23T09:57:57.340Z,21.52
2023-01-23T10:00:26.142Z,21.38
2023-01-23T10:02:53.744Z,21.83
2023-01-23T10:05:39.588Z,21.88
2023-01-23T10:08:34.165Z,21.33
2023-01-23T10:11:12.694Z,21.95
2023-01-23T10:13:42.675Z,22.23
2023-01-23T10:16:15.871Z,20.60
2023-01-23T10:19:14.202Z,20.20
2023-01-23T10:21:49.910Z,21.60
2023-01-23T10:24:23.796Z,22.13
2023-01-23T10:26:52.160Z,21.60
2023-01-23T10:29:38.260Z,21.35
2023-01-23T10:32:25.426Z,19.52
2023-01-23T10:34:58.855Z,20.65
2023-01-23T10:37:43.756Z,21.58
2023-01-23T10:40:17.610Z,21.65
2023-01-23T10:42:44.764Z,20.83
2023-01-23T10:45:19.487Z,20.65
2023-01-23T10:47:54.580Z,20.33
2023-01-23T10:50:39.614Z,20.10
2023-01-23T10:53:09.123Z,20.23
2023-01-23T10:55:36.118Z,21.05
2023-01-23T10:58:03.281Z,20.65
2023-01-23T11:00:45.820Z,21.00
2023-01-23T11:03:22.048Z,21.15
2023-01-23T11:06:20.916Z,19.80
2023-01-23T11:09:00.442Z,19.45
2023-01-23T11:11:29.799Z,19.60
2023-01-23T11:14:10.900Z,21.02
2023-01-23T11:16:38.654Z,19.05
2023-01-23T11:19:08.392Z,20.83
2023-01-23T11:21:50.261Z,21.13
2023-01-23T11:24:30.589Z,19.65
2023-01-23T11:27:17.023Z,20.55
2023-01-23T11:29:49.720Z,19.60
2023-01-23T11:32:17.438Z,18.85
2023-01-23T11:34:50.781Z,19.98
2023-01-23T11:37:21.417Z,18.98
2023-01-23T11:39:58.265Z,20.02
2023-01-23T11:42:28.611Z,19.88
2023-01-23T11:44:59.393Z,18.80
2023-01-23T11:48:20.794Z,20.65
2023-01-23T11:50:55.576Z,18.58
2023-01-23T11:53:44.358Z,19.38
2023-01-23T11:56:53.731Z,19.00
2023-01-23T11:59:25.278Z,18.83
2023-01-23T12:02:13.128Z,19.13
2023-01-23T12:04:55.330Z,18.25
2023-01-23T12:07:24.614Z,18.98
2023-01-23T12:10:06.335Z,18.92
2023-01-23T12:12:41.852Z,19.95
2023-01-23T12:15:33.138Z,18.88
2023-01-23T12:18:41.566Z,18.70
2023-01-23T12:21:11.486Z,21.25
2023-01-23T12:24:12.194Z,20.52
2023-01-23T12:26:53.527Z,21.48
2023-01-23T12:30:04.959Z,19.77
2023-01-23T12:32:40.282Z,18.92
2023-01-23T12:35:44.971Z,20.45
2023-01-23T12:38:31.643Z,20.23
2023-01-23T12:41:09.790Z,18.23
2023-01-23T12:43:59.535Z,19.20
2023-01-23T12:46:36.742Z,20.42
2023-01-23T12:49:20.028Z,19.55
2023-01-23T12:51:54.353Z,18.20
2023-01-23T12:54:36.927Z,18.83
2023-01-23T12:57:05.599Z,19.00
2023-01-23T13:00:03.947Z,18.77
2023-01-23T13:03:22.790Z,19.05
2023-01-23T13:05:55.652Z,20.33
2023-01-23T13:08:28.996Z,19.02
2023-01-23T13:11:29.097Z,17.88
2023-01-23T13:13:56.512Z,18.30
2023-01-23T13:16:31.017Z,17.85
2023-01-23T13:19:33.582Z,16.77
2023-01-23T13:22:18.874Z,17.23
2023-01-23T13:25:10.185Z,17.38
2023-01-23T13:27:51.494Z,16.38
2023-01-23T13:30:24.213Z,16.67
2023-01-23T13:32:53.216Z,17.55
2023-01-23T13:35:47.905Z,17.02
2023-01-23T13:38:29.599Z,17.15
2023-01-23T13:41:05.402Z,18.40
2023-01-23T13:43:50.576Z,16.88
2023-01-23T13:46:36.254Z,16.52
2023-01-23T14:21:57.933Z,15.95
2023-01-23T14:24:42.673Z,17.45
2023-01-23T14:27:21.584Z,17.35
2023-01-23T14:30:01.333Z,17.08
2023-01-23T14:32:33.153Z,17.38
2023-01-23T14:35:00.282Z,16.33
2023-01-23T14:37:28.323Z,15.50
2023-01-23T14:39:58.196Z,16.27
2023-01-23T14:42:30.368Z,16.30
2023-01-23T14:45:00.789Z,16.17
2023-01-23T14:47:42.502Z,16.63
2023-01-23T14:50:16.070Z,16.10
2023-01-23T14:52:43.062Z,16.33
2023-01-23T14:55:29.799Z,16.80
2023-01-23T14:58:01.035Z,17.45
2023-01-23T15:00:29.359Z,16.30
2023-01-23T15:02:56.706Z,17.58
2023-01-23T15:05:27.226Z,18.02
2023-01-23T15:08:04.223Z,16.63
2023-01-23T15:10:35.076Z,16.77
2023-01-23T15:13:11.750Z,17.95
2023-01-23T15:15:44.437Z,18.02
2023-01-23T15:18:23.715Z,17.92
2023-01-23T15:20:56.819Z,17.23
2023-01-23T15:24:00.448Z,15.90
2023-01-23T15:26:38.933Z,17.20
2023-01-23T15:29:08.701Z,16.27
2023-01-23T15:31:45.207Z,17.38
2023-01-23T15:34:15.189Z,15.70
2023-01-23T15:36:53.309Z,16.95
2023-01-23T15:39:32.289Z,17.20
2023-01-23T15:42:14.657Z,16.13
2023-01-23T15:44:43.205Z,15.82
2023-01-23T15:47:10.910Z,15.80
2023-01-23T15:49:39.959Z,15.52
2023-01-23T15:52:25.250Z,14.65
2023-01-23T15:54:55.273Z,15.90
2023-01-23T15:57:23.040Z,15.63
2023-01-23T15:59:50.165Z,13.55
2023-01-23T16:02:30.543Z,15.43
2023-01-23T16:05:00.882Z,15.70
2023-01-23T16:07:40.495Z,13.45
2023-01-23T16:10:29.171Z,15.23
2023-01-23T16:12:58.049Z,13.90
2023-01-23T16:15:31.236Z,13.73
2023-01-23T16:17:58.756Z,13.45
2023-01-23T16:20:31.947Z,13.82
2023-01-23T16:23:11.636Z,13.73
2023-01-23T16:25:44.656Z,14.85
2023-01-23T16:28:18.749Z,12.82
2023-01-23T16:30:47.702Z,13.75
2023-01-23T16:33:15.104Z,13.50
2023-01-23T16:35:42.375Z,14.68
2023-01-23T16:38:27.882Z,14.32
2023-01-23T16:40:56.815Z,14.57
2023-01-23T16:43:23.908Z,12.95
2023-01-23T16:45:53.627Z,14.88
2023-01-23T16:48:27.738Z,14.27
2023-01-23T16:51:22.032Z,14.90
2023-01-23T16:53:55.569Z,14.43
2023-01-23T16:56:30.000Z,15.30
2023-01-23T16:58:57.776Z,14.43
2023-01-23T17:01:24.896Z,14.85
2023-01-23T17:03:58.783Z,15.52
2023-01-23T17:06:26.452Z,14.63
2023-01-23T17:08:53.727Z,18.25
2023-01-23T17:11:26.663Z,14.55
2023-01-23T17:13:58.629Z,15.80
2023-01-23T17:16:27.858Z,14.38
2023-01-23T17:18:58.870Z,14.32
2023-01-23T17:21:30.882Z,13.68
2023-01-23T17:23:57.893Z,13.60
2023-01-23T17:26:24.949Z,13.05
2023-01-23T17:28:52.041Z,13.38
2023-01-23T17:31:29.257Z,13.07
2023-01-23T17:33:56.736Z,13.82
2023-01-23T17:36:26.316Z,12.35
2023-01-23T17:38:57.624Z,11.95
2023-01-23T17:41:24.801Z,12.40
2023-01-23T17:43:52.707Z,12.80
2023-01-23T17:46:28.007Z,12.05
2023-01-23T17:48:56.358Z,13.18
2023-01-23T17:51:25.075Z,11.85
2023-01-23T17:53:52.796Z,12.23
2023-01-23T17:56:19.744Z,12.40
2023-01-23T17:58:46.804Z,12.10
2023-01-23T18:01:18.660Z,10.95
2023-01-23T18:03:46.482Z,13.30
2023-01-23T18:06:13.535Z,13.10
2023-01-23T18:08:42.285Z,13.93
2023-01-23T18:11:21.892Z,13.88
2023-01-23T18:13:53.325Z,13.68
2023-01-23T18:16:25.209Z,13.07
2023-01-23T18:19:00.403Z,12.43
2023-01-23T18:21:28.460Z,13.93
2023-01-23T18:23:56.056Z,15.43
2023-01-23T18:26:44.790Z,16.02
2023-01-23T18:29:19.006Z,16.58
2023-01-23T18:32:18.924Z,17.75
2023-01-23T18:35:20.932Z,17.45
2023-01-23T18:38:20.979Z,16.48
2023-01-23T18:41:10.854Z,15.85
2023-01-23T18:43:43.803Z,15.63
2023-01-23T18:46:18.990Z,15.38
2023-01-23T18:48:49.487Z,15.38
2023-01-23T18:51:32.715Z,13.55
2023-01-23T18:54:22.818Z,15.40
2023-01-23T18:56:57.904Z,14.18
2023-01-23T18:59:51.800Z,15.15
2023-01-23T19:02:42.116Z,15.23
2023-01-23T19:05:21.319Z,14.32
2023-01-23T19:07:53.583Z,15.13
2023-01-23T19:10:32.489Z,13.93
2023-01-23T19:13:07.775Z,14.55
2023-01-23T19:15:44.254Z,14.60
2023-01-23T19:18:40.415Z,14.70
2023-01-23T19:21:20.469Z,13.68
2023-01-23T19:24:04.308Z,14.90
2023-01-23T19:26:39.948Z,13.35
2023-01-23T19:29:21.573Z,14.98
2023-01-23T19:32:03.514Z,13.65
2023-01-23T19:34:32.134Z,13.90
2023-01-23T19:36:59.182Z,15.25
2023-01-23T19:39:26.160Z,13.38
2023-01-23T19:41:53.418Z,14.07
2023-01-23T19:44:24.170Z,12.77
2023-01-23T19:46:52.310Z,13.60
2023-01-23T19:49:19.835Z,13.07
2023-01-23T19:51:47.165Z,12.80
2023-01-23T19:54:15.323Z,12.27
2023-01-23T19:56:42.751Z,13.25
2023-01-23T19:59:10.567Z,12.80
2023-01-23T20:01:40.184Z,13.00
2023-01-23T20:04:27.452Z,15.07
2023-01-23T20:06:54.628Z,14.93
2023-01-23T20:09:22.299Z,14.70
2023-01-23T20:11:49.812Z,16.08
2023-01-23T20:14:16.880Z,15.55
2023-01-23T20:16:44.386Z,15.52
2023-01-23T20:19:14.389Z,15.40
2023-01-23T20:21:41.387Z,15.55
2023-01-23T20:24:08.590Z,15.80
2023-01-23T20:26:36.165Z,14.73
2023-01-23T20:29:04.066Z,14.77
2023-01-23T20:31:32.965Z,15.35
2023-01-23T20:34:00.280Z,15.52
2023-01-23T20:36:27.979Z,15.15
2023-01-23T20:38:56.874Z,16.00
2023-01-23T20:41:24.252Z,17.02
2023-01-23T20:43:51.292Z,17.42
2023-01-23T20:46:19.446Z,15.82
2023-01-23T20:48:47.283Z,15.77
2023-01-23T20:51:17.626Z,17.67
2023-01-23T20:53:45.651Z,17.58
2023-01-23T20:56:15.376Z,17.55
2023-01-23T20:59:06.358Z,17.15
2023-01-23T21:01:54.813Z,17.58
2023-01-23T21:04:23.380Z,17.60
2023-01-23T21:06:52.708Z,17.38
2023-01-23T21:09:19.790Z,16.75
2023-01-23T21:11:49.265Z,17.95
2023-01-23T21:14:16.232Z,17.50
2023-01-23T21:16:43.871Z,17.85
2023-01-23T21:19:10.971Z,17.80
2023-01-23T21:21:38.337Z,19.98
2023-01-23T21:24:06.423Z,18.70
2023-01-23T21:26:35.014Z,18.70
2023-01-23T21:29:02.181Z,18.05
2023-01-23T21:31:35.740Z,18.15
2023-01-23T21:34:04.632Z,18.60
2023-01-23T21:36:32.139Z,18.98
2023-01-23T21:38:59.306Z,19.55
2023-01-23T21:41:26.355Z,18.60
2023-01-23T21:43:53.545Z,18.83
2023-01-23T21:46:20.702Z,19.15
2023-01-23T21:48:47.705Z,20.40
2023-01-23T21:51:17.343Z,19.90
2023-01-23T21:53:45.973Z,19.98
2023-01-23T21:56:15.084Z,19.40
2023-01-23T21:58:45.035Z,19.77
2023-01-23T22:01:35.389Z,20.67
2023-01-23T22:04:09.396Z,20.23
2023-01-23T22:06:38.175Z,19.00
2023-01-23T22:09:06.181Z,20.88
2023-01-23T22:11:33.463Z,20.13
2023-01-23T22:14:00.996Z,20.38
2023-01-23T22:16:46.969Z,20.02
2023-01-23T22:19:16.642Z,20.52
2023-01-23T22:21:44.358Z,19.67
2023-01-23T22:24:11.625Z,20.88
2023-01-23T22:26:38.810Z,20.67
2023-01-23T22:29:05.772Z,22.30
2023-01-23T22:31:32.835Z,21.63
2023-01-23T22:33:59.893Z,19.40
2023-01-23T22:36:26.893Z,20.35
2023-01-23T22:38:55.245Z,19.73
2023-01-23T22:41:23.266Z,20.75
2023-01-23T22:43:54.517Z,18.60
2023-01-23T22:46:22.410Z,18.90
2023-01-23T22:48:49.868Z,18.48
2023-01-23T22:51:24.506Z,19.13
2023-01-23T22:53:53.279Z,18.35
2023-01-23T22:56:20.655Z,18.38
2023-01-23T22:58:49.488Z,18.58
2023-01-23T23:01:17.672Z,20.67
2023-01-23T23:03:45.429Z,19.98
2023-01-23T23:06:14.531Z,18.73
2023-01-23T23:08:41.882Z,18.33
2023-01-23T23:11:08.810Z,19.80
2023-01-23T23:13:38.281Z,19.65
2023-01-23T23:16:20.833Z,19.38
2023-01-23T23:18:49.914Z,19.75
2023-01-23T23:21:19.748Z,17.90
2023-01-23T23:23:47.601Z,19.10
2023-01-23T23:26:14.789Z,19.63
2023-01-23T23:28:41.842Z,18.88
2023-01-23T23:31:09.802Z,18.88
2023-01-23T23:33:36.909Z,20.40
2023-01-23T23:36:04.354Z,21.27
2023-01-23T23:38:31.275Z,20.95
2023-01-23T23:41:07.127Z,19.38
2023-01-23T23:43:34.611Z,20.95
2023-01-23T23:46:05.121Z,20.13
2023-01-23T23:48:34.146Z,20.00
2023-01-23T23:51:02.602Z,21.25
2023-01-23T23:53:30.629Z,20.20
2023-01-23T23:55:57.600Z,20.02
2023-01-23T23:58:25.067Z,20.75
